Terminal Aerodrome Forecast
Issued by NWS Twin Cities, MN

Home | Current Version | Previous Version | Graphics & Text | Print | Product List | Glossary On
Versions: 1 2 3 4 5 6 7 8 9 10 11 12 13 14
000
FTUS43 KMPX 230500
TAFSTC
TAF
KSTC 230534Z 2306/2406 17010KT 6SM -SHRA BR SCT020 OVC040
      TEMPO 2306/2307 4SM SHRA BKN020
     FM230700 20006KT 6SM BR BKN012 OVC030
     FM231000 22004KT 2SM BR OVC008
     FM231400 24008KT P6SM SCT010
     FM240100 19005KT P6SM SKC=

USA.gov is the U.S. government's official web portal to all federal, state and local government web resources and services.